createdAt,value
2022-08-28T00:00:54.866Z,21.98
2022-08-28T00:01:56.965Z,21.93
2022-08-28T00:02:58.976Z,21.91
2022-08-28T00:04:01.085Z,21.92
2022-08-28T00:05:02.802Z,21.98
2022-08-28T00:06:04.846Z,22.04
2022-08-28T00:07:06.854Z,22.11
2022-08-28T00:08:11.218Z,22.16
2022-08-28T00:09:12.955Z,22.19
2022-08-28T00:10:17.106Z,22.24
2022-08-28T00:11:21.091Z,22.24
2022-08-28T00:12:22.913Z,22.19
2022-08-28T00:13:25.642Z,22.17
2022-08-28T00:14:27.368Z,22.11
2022-08-28T00:15:33.213Z,22.06
2022-08-28T00:16:35.981Z,22.07
2022-08-28T00:17:38.319Z,22.08
2022-08-28T00:18:40.028Z,22.11
2022-08-28T00:19:41.803Z,22.15
2022-08-28T00:20:44.402Z,22.18
2022-08-28T00:21:47.728Z,22.21
2022-08-28T00:22:49.749Z,22.21
2022-08-28T00:23:52.597Z,22.24
2022-08-28T00:24:55.067Z,22.23
2022-08-28T00:25:57.363Z,22.24
2022-08-28T00:27:18.574Z,22.23
2022-08-28T00:28:23.667Z,22.24
2022-08-28T00:29:25.649Z,22.25
2022-08-28T00:30:38.731Z,22.14
2022-08-28T00:31:40.418Z,21.99
2022-08-28T00:32:42.124Z,21.86
2022-08-28T00:33:43.691Z,21.79
2022-08-28T00:34:45.260Z,21.62
2022-08-28T00:35:48.642Z,21.53
2022-08-28T00:36:50.238Z,21.41
2022-08-28T00:37:54.659Z,21.36
2022-08-28T00:38:59.905Z,21.25
2022-08-28T00:40:02.010Z,21.25
2022-08-28T00:41:05.052Z,21.30
2022-08-28T00:42:06.861Z,21.24
2022-08-28T00:43:10.003Z,21.19
2022-08-28T00:44:20.953Z,21.14
2022-08-28T00:45:23.935Z,21.09
2022-08-28T00:46:25.585Z,21.03
2022-08-28T00:47:28.358Z,20.96
2022-08-28T00:48:30.024Z,20.96
2022-08-28T00:49:35.976Z,20.88
2022-08-28T00:50:56.745Z,20.81
2022-08-28T00:52:06.034Z,20.66
2022-08-28T00:53:07.653Z,20.68
2022-08-28T00:54:09.995Z,20.78
2022-08-28T00:55:15.835Z,20.89
2022-08-28T00:56:19.074Z,20.99
2022-08-28T00:57:34.311Z,21.08
2022-08-28T00:58:36.350Z,21.16
2022-08-28T00:59:38.096Z,21.24
2022-08-28T01:00:42.049Z,21.32
2022-08-28T01:01:45.576Z,21.42
2022-08-28T01:02:47.302Z,21.48
2022-08-28T01:03:49.229Z,21.56
2022-08-28T01:04:50.970Z,21.56
2022-08-28T01:05:52.771Z,21.61
2022-08-28T01:06:57.025Z,21.60
2022-08-28T01:07:59.384Z,21.60
2022-08-28T01:09:01.238Z,21.60
2022-08-28T01:10:05.613Z,21.59
2022-08-28T01:11:09.141Z,21.56
2022-08-28T01:12:15.156Z,21.54
2022-08-28T01:13:17.694Z,21.51
2022-08-28T01:14:23.184Z,21.51
2022-08-28T01:15:33.633Z,21.47
2022-08-28T01:16:36.742Z,21.43
2022-08-28T01:17:43.185Z,21.42
2022-08-28T01:18:46.766Z,21.41
2022-08-28T01:19:57.085Z,21.38
2022-08-28T01:21:23.838Z,21.20
2022-08-28T01:22:37.349Z,20.99
2022-08-28T01:23:44.930Z,20.97
2022-08-28T01:24:49.137Z,20.93
2022-08-28T01:25:52.497Z,20.88
2022-08-28T01:26:54.106Z,20.79
2022-08-28T01:27:55.885Z,20.82
2022-08-28T01:29:01.389Z,20.90
2022-08-28T01:30:03.840Z,20.99
2022-08-28T01:31:05.608Z,21.08
2022-08-28T01:32:07.336Z,21.14
2022-08-28T01:33:11.981Z,21.22
2022-08-28T01:34:14.332Z,21.25
2022-08-28T01:35:20.044Z,21.31
2022-08-28T01:36:21.838Z,21.36
2022-08-28T01:37:23.463Z,21.40
2022-08-28T01:38:26.981Z,21.44
2022-08-28T01:39:29.064Z,21.49
2022-08-28T01:40:40.040Z,21.52
2022-08-28T01:41:43.706Z,21.53
2022-08-28T01:42:45.288Z,21.55
2022-08-28T01:43:46.883Z,21.56
2022-08-28T01:44:50.182Z,21.59
2022-08-28T01:45:59.594Z,21.57
2022-08-28T01:47:01.235Z,21.57
2022-08-28T01:48:03.234Z,21.58
2022-08-28T01:49:04.868Z,21.60
2022-08-28T01:50:09.211Z,21.62
2022-08-28T01:51:12.303Z,21.64
2022-08-28T01:52:14.044Z,21.66
2022-08-28T01:53:24.968Z,21.74
2022-08-28T01:54:28.859Z,21.80
2022-08-28T01:55:32.494Z,21.77
2022-08-28T01:56:35.097Z,21.76
2022-08-28T01:57:43.543Z,21.76
2022-08-28T01:59:50.912Z,21.76
2022-08-28T02:00:53.613Z,21.75
2022-08-28T02:01:55.368Z,21.75
2022-08-28T02:02:58.758Z,21.75
2022-08-28T02:04:00.831Z,21.74
2022-08-28T02:05:02.612Z,21.74
2022-08-28T02:06:04.784Z,21.75
2022-08-28T02:07:06.464Z,21.75
2022-08-28T02:08:08.193Z,21.76
2022-08-28T02:09:10.281Z,21.77
2022-08-28T02:10:17.025Z,21.74
2022-08-28T02:11:18.597Z,21.72
2022-08-28T02:12:20.709Z,21.71
2022-08-28T02:13:22.410Z,21.70
2022-08-28T02:14:27.354Z,21.65
2022-08-28T02:15:30.798Z,21.53
2022-08-28T02:16:32.378Z,21.41
2022-08-28T02:17:35.274Z,21.29
2022-08-28T02:18:38.597Z,21.20
2022-08-28T02:19:40.195Z,21.14
2022-08-28T02:20:42.987Z,21.02
2022-08-28T02:21:45.003Z,20.94
2022-08-28T02:22:46.604Z,20.89
2022-08-28T02:23:48.257Z,20.77
2022-08-28T02:24:49.810Z,20.80
2022-08-28T02:25:51.411Z,20.85
2022-08-28T02:26:52.963Z,20.90
2022-08-28T02:27:55.211Z,20.94
2022-08-28T02:28:56.815Z,20.99
2022-08-28T02:29:58.899Z,21.06
2022-08-28T02:31:00.578Z,21.05
2022-08-28T02:32:02.461Z,21.05
2022-08-28T02:33:04.212Z,21.07
2022-08-28T02:34:05.990Z,21.03
2022-08-28T02:35:12.038Z,21.02
2022-08-28T02:36:15.256Z,21.03
2022-08-28T02:37:16.871Z,21.07
2022-08-28T02:38:18.899Z,21.09
2022-08-28T02:39:20.569Z,21.10
2022-08-28T02:40:25.744Z,21.14
2022-08-28T02:41:27.403Z,21.09
2022-08-28T02:42:29.410Z,20.91
2022-08-28T02:43:31.270Z,20.79
2022-08-28T02:44:33.043Z,20.68
2022-08-28T02:45:35.493Z,20.51
2022-08-28T02:46:37.208Z,20.34
2022-08-28T02:47:40.270Z,20.28
2022-08-28T02:48:42.290Z,20.22
2022-08-28T02:49:44.448Z,20.14
2022-08-28T02:50:47.124Z,20.09
2022-08-28T02:51:48.809Z,20.17
2022-08-28T02:52:51.764Z,20.14
2022-08-28T02:53:53.453Z,20.19
2022-08-28T02:54:55.061Z,20.28
2022-08-28T02:55:57.786Z,20.33
2022-08-28T02:56:59.541Z,20.40
2022-08-28T02:58:01.174Z,20.40
2022-08-28T02:59:02.821Z,20.35
2022-08-28T03:00:06.704Z,20.33
2022-08-28T03:01:11.092Z,20.40
2022-08-28T03:02:12.839Z,20.47
2022-08-28T03:03:14.464Z,20.52
2022-08-28T03:04:16.929Z,20.52
2022-08-28T03:05:21.870Z,20.52
2022-08-28T03:06:23.462Z,20.63
2022-08-28T03:07:25.028Z,20.67
2022-08-28T03:08:28.110Z,20.70
2022-08-28T03:09:30.129Z,20.66
2022-08-28T03:10:31.720Z,20.72
2022-08-28T03:11:33.958Z,20.74
2022-08-28T03:12:35.927Z,20.75
2022-08-28T03:13:38.143Z,20.67
2022-08-28T03:14:40.358Z,20.62
2022-08-28T03:15:43.618Z,20.56
2022-08-28T03:16:47.463Z,20.45
2022-08-28T03:17:49.110Z,20.34
2022-08-28T03:18:52.147Z,20.30
2022-08-28T03:19:53.809Z,20.21
2022-08-28T03:20:56.183Z,20.09
2022-08-28T03:21:57.754Z,20.02
2022-08-28T03:23:17.976Z,20.06
2022-08-28T03:24:20.115Z,20.09
2022-08-28T03:25:22.718Z,20.15
2022-08-28T03:26:24.541Z,20.18
2022-08-28T03:27:26.185Z,20.23
2022-08-28T03:28:30.678Z,20.22
2022-08-28T03:29:32.502Z,20.25
2022-08-28T03:30:34.204Z,20.30
2022-08-28T03:31:36.416Z,20.31
2022-08-28T03:32:38.147Z,20.33
2022-08-28T03:33:42.541Z,20.35
2022-08-28T03:34:45.005Z,20.33
2022-08-28T03:35:46.765Z,20.27
2022-08-28T03:36:48.384Z,20.23
2022-08-28T03:37:49.994Z,20.12
2022-08-28T03:38:53.815Z,20.03
2022-08-28T03:39:55.594Z,20.03
2022-08-28T03:40:57.596Z,20.07
2022-08-28T03:42:01.001Z,20.07
2022-08-28T03:43:02.611Z,20.12
2022-08-28T03:44:05.451Z,20.13
2022-08-28T03:45:09.781Z,20.13
2022-08-28T03:46:18.850Z,20.06
2022-08-28T03:47:21.563Z,19.96
2022-08-28T03:48:24.440Z,19.90
2022-08-28T03:49:26.019Z,19.77
2022-08-28T03:50:29.788Z,19.69
2022-08-28T03:51:33.404Z,19.65
2022-08-28T03:52:35.022Z,19.61
2022-08-28T03:53:37.455Z,19.55
2022-08-28T03:54:39.056Z,19.47
2022-08-28T03:55:42.372Z,19.45
2022-08-28T03:56:43.937Z,19.37
2022-08-28T03:57:45.946Z,19.35
2022-08-28T03:58:49.267Z,19.33
2022-08-28T03:59:52.917Z,19.28
2022-08-28T04:00:55.499Z,19.23
2022-08-28T04:01:57.143Z,19.20
2022-08-28T04:02:58.764Z,19.24
2022-08-28T04:04:00.728Z,19.28
2022-08-28T04:05:02.421Z,19.34
2022-08-28T04:06:04.148Z,19.36
2022-08-28T04:07:06.333Z,19.41
2022-08-28T04:08:08.155Z,19.39
2022-08-28T04:09:09.745Z,19.38
2022-08-28T04:10:12.232Z,19.41
2022-08-28T04:11:13.988Z,19.44
2022-08-28T04:12:16.055Z,19.50
2022-08-28T04:13:20.012Z,19.50
2022-08-28T04:14:21.630Z,19.57
2022-08-28T04:15:23.217Z,19.67
2022-08-28T04:16:24.804Z,19.70
2022-08-28T04:17:26.515Z,19.69
2022-08-28T04:18:28.744Z,19.62
2022-08-28T04:19:30.311Z,19.66
2022-08-28T04:20:31.888Z,19.69
2022-08-28T04:21:33.499Z,19.80
2022-08-28T04:22:35.445Z,19.88
2022-08-28T04:23:39.339Z,19.93
2022-08-28T04:24:40.925Z,19.98
2022-08-28T04:25:42.543Z,19.98
2022-08-28T04:26:44.167Z,19.89
2022-08-28T04:27:45.811Z,19.87
2022-08-28T04:28:48.628Z,19.96
2022-08-28T04:29:50.422Z,20.08
2022-08-28T04:30:56.569Z,20.12
2022-08-28T04:31:58.449Z,20.19
2022-08-28T04:33:00.120Z,20.26
2022-08-28T04:34:04.971Z,20.35
2022-08-28T04:35:08.802Z,20.46
2022-08-28T04:36:16.498Z,20.51
2022-08-28T04:37:18.787Z,20.64
2022-08-28T04:38:21.136Z,20.69
2022-08-28T04:39:22.837Z,20.81
2022-08-28T04:40:24.617Z,20.94
2022-08-28T04:41:27.589Z,21.01
2022-08-28T04:42:29.176Z,21.11
2022-08-28T04:43:30.911Z,21.21
2022-08-28T04:44:32.537Z,21.29
2022-08-28T04:45:40.866Z,21.32
2022-08-28T04:46:42.480Z,21.31
2022-08-28T04:47:44.053Z,21.27
2022-08-28T04:48:45.673Z,21.29
2022-08-28T04:49:47.215Z,21.24
2022-08-28T04:50:49.859Z,21.27
2022-08-28T04:51:51.748Z,21.26
2022-08-28T04:52:53.907Z,21.28
2022-08-28T04:53:56.422Z,21.36
2022-08-28T04:54:58.021Z,21.48
2022-08-28T04:56:04.033Z,21.49
2022-08-28T04:57:06.436Z,21.53
2022-08-28T04:58:08.878Z,21.63
2022-08-28T04:59:11.753Z,21.75
2022-08-28T05:00:13.736Z,21.88
2022-08-28T05:01:19.216Z,21.98
2022-08-28T05:02:20.947Z,22.11
2022-08-28T05:03:23.515Z,22.19
2022-08-28T05:04:26.942Z,22.25
2022-08-28T05:05:28.540Z,22.32
2022-08-28T05:06:32.549Z,22.40
2022-08-28T05:07:34.787Z,22.46
2022-08-28T05:08:36.463Z,22.54
2022-08-28T05:09:38.172Z,22.46
2022-08-28T05:10:40.481Z,22.52
2022-08-28T05:11:42.764Z,22.58
2022-08-28T05:12:44.427Z,22.58
2022-08-28T05:13:46.147Z,22.69
2022-08-28T05:14:49.033Z,22.81
2022-08-28T05:15:52.224Z,22.92
2022-08-28T05:16:53.984Z,23.03
2022-08-28T05:17:55.766Z,23.11
2022-08-28T05:19:03.151Z,23.22
2022-08-28T05:20:06.019Z,23.32
2022-08-28T05:21:20.831Z,23.38
2022-08-28T05:22:23.283Z,23.47
2022-08-28T05:23:25.702Z,23.54
2022-08-28T05:24:27.418Z,23.51
2022-08-28T05:25:29.303Z,23.44
2022-08-28T05:26:31.000Z,23.49
2022-08-28T05:27:32.632Z,23.26
2022-08-28T05:28:34.246Z,23.27
2022-08-28T05:29:35.979Z,23.41
2022-08-28T05:30:39.580Z,23.45
2022-08-28T05:31:41.564Z,23.50
2022-08-28T05:32:43.379Z,23.42
2022-08-28T05:33:47.419Z,23.57
2022-08-28T05:34:49.068Z,23.69
2022-08-28T05:35:50.660Z,23.80
2022-08-28T05:36:52.232Z,23.92
2022-08-28T05:37:53.966Z,24.08
2022-08-28T05:38:57.152Z,24.25
2022-08-28T05:39:58.795Z,24.38
2022-08-28T05:41:01.113Z,24.53
2022-08-28T05:42:02.721Z,24.70
2022-08-28T05:43:04.347Z,24.78
2022-08-28T05:44:09.243Z,24.89
2022-08-28T05:45:11.713Z,25.03
2022-08-28T05:46:13.383Z,25.12
2022-08-28T05:47:16.662Z,25.17
2022-08-28T05:48:23.210Z,25.19
2022-08-28T05:49:24.860Z,25.30
2022-08-28T05:50:26.794Z,25.35
2022-08-28T05:51:28.695Z,25.40
2022-08-28T05:52:30.328Z,25.35
2022-08-28T05:53:34.326Z,25.39
2022-08-28T05:54:35.923Z,25.34
2022-08-28T05:55:40.596Z,25.44
2022-08-28T05:56:44.501Z,25.49
2022-08-28T05:57:46.394Z,25.57
2022-08-28T05:58:48.726Z,25.59
2022-08-28T05:59:50.891Z,25.69
2022-08-28T06:00:52.485Z,25.84
2022-08-28T06:01:54.158Z,25.96
2022-08-28T06:02:55.817Z,26.08
2022-08-28T06:04:01.851Z,26.15
2022-08-28T06:05:03.653Z,26.26
2022-08-28T06:06:07.258Z,26.25
2022-08-28T06:07:12.123Z,26.33
2022-08-28T06:08:13.852Z,26.35
2022-08-28T06:09:29.093Z,26.43
2022-08-28T06:10:31.400Z,26.44
2022-08-28T06:11:33.863Z,26.47
2022-08-28T06:12:36.530Z,26.50
2022-08-28T06:13:38.218Z,26.53
2022-08-28T06:14:40.418Z,26.62
2022-08-28T06:15:44.646Z,26.71
2022-08-28T06:16:52.514Z,26.67
2022-08-28T06:17:54.270Z,26.59
2022-08-28T06:18:56.281Z,26.57
2022-08-28T06:19:57.861Z,26.60
2022-08-28T06:21:02.775Z,26.70
2022-08-28T06:22:07.237Z,26.82
2022-08-28T06:23:10.229Z,26.92
2022-08-28T06:24:13.448Z,26.92
2022-08-28T06:25:15.077Z,26.88
2022-08-28T06:26:16.647Z,26.92
2022-08-28T06:27:18.227Z,26.95
2022-08-28T06:28:23.411Z,26.97
2022-08-28T06:29:26.115Z,26.99
2022-08-28T06:30:27.968Z,26.98
2022-08-28T06:31:33.422Z,26.96
2022-08-28T06:32:35.299Z,26.96
2022-08-28T06:33:37.793Z,27.02
2022-08-28T06:34:39.457Z,27.01
2022-08-28T06:35:47.745Z,27.08
2022-08-28T06:36:53.626Z,27.26
2022-08-28T06:37:55.682Z,27.23
2022-08-28T06:38:58.652Z,27.25
2022-08-28T06:40:00.297Z,27.19
2022-08-28T06:41:02.606Z,27.25
2022-08-28T06:42:05.536Z,27.35
2022-08-28T06:43:07.868Z,27.32
2022-08-28T06:44:12.526Z,27.29
2022-08-28T06:45:14.101Z,27.21
2022-08-28T06:46:16.305Z,27.19
2022-08-28T06:47:17.999Z,27.21
2022-08-28T06:48:21.043Z,27.17
2022-08-28T06:49:22.670Z,27.03
2022-08-28T06:50:24.296Z,27.02
2022-08-28T06:51:25.908Z,26.88
2022-08-28T06:52:27.462Z,26.80
2022-08-28T06:53:33.626Z,26.81
2022-08-28T06:54:35.269Z,26.86
2022-08-28T06:55:38.221Z,26.91
2022-08-28T06:56:39.823Z,26.93
2022-08-28T06:57:41.395Z,27.01
2022-08-28T06:58:50.212Z,27.14
2022-08-28T06:59:57.795Z,27.18
2022-08-28T07:01:08.641Z,27.05
2022-08-28T07:02:10.423Z,26.97
2022-08-28T07:03:13.570Z,27.03
2022-08-28T07:04:19.264Z,27.17
2022-08-28T07:05:21.029Z,27.18
2022-08-28T07:06:23.917Z,27.20
2022-08-28T07:07:32.393Z,27.13
2022-08-28T07:08:35.546Z,27.23
2022-08-28T07:09:37.157Z,27.30
2022-08-28T07:10:39.087Z,27.40
2022-08-28T07:11:43.712Z,27.55
2022-08-28T07:12:45.403Z,27.71
2022-08-28T07:13:47.085Z,27.76
2022-08-28T07:14:48.633Z,27.87
2022-08-28T07:15:50.289Z,27.94
2022-08-28T07:16:52.024Z,28.03
2022-08-28T07:17:54.188Z,27.99
2022-08-28T07:18:57.666Z,28.04
2022-08-28T07:20:02.035Z,28.14
2022-08-28T07:21:03.677Z,28.19
2022-08-28T07:22:05.848Z,28.26
2022-08-28T07:23:07.725Z,28.21
2022-08-28T07:24:11.382Z,28.19
2022-08-28T07:25:13.000Z,28.19
2022-08-28T07:26:24.307Z,28.32
2022-08-28T07:27:25.896Z,28.50
2022-08-28T07:28:27.527Z,28.63
2022-08-28T07:29:29.435Z,28.59
2022-08-28T07:30:31.130Z,28.60
2022-08-28T07:31:32.722Z,28.47
2022-08-28T07:32:34.584Z,28.38
2022-08-28T07:33:37.590Z,28.30
2022-08-28T07:34:41.081Z,28.31
2022-08-28T07:35:45.681Z,28.28
2022-08-28T07:36:48.104Z,28.28
2022-08-28T07:37:49.699Z,28.27
2022-08-28T07:38:51.462Z,28.23
2022-08-28T07:39:55.441Z,28.09
2022-08-28T07:40:57.133Z,28.20
2022-08-28T07:41:58.777Z,28.28
2022-08-28T07:43:18.628Z,28.39
2022-08-28T07:44:38.674Z,28.57
2022-08-28T07:45:40.259Z,28.51
2022-08-28T07:46:42.173Z,28.59
2022-08-28T07:47:43.760Z,28.73
2022-08-28T07:48:47.199Z,28.87
2022-08-28T07:49:48.796Z,28.94
2022-08-28T07:50:50.337Z,28.85
2022-08-28T07:51:54.351Z,28.98
2022-08-28T07:52:56.147Z,29.18
2022-08-28T07:53:58.052Z,29.33
2022-08-28T07:55:00.374Z,29.47
2022-08-28T07:56:02.828Z,29.56
2022-08-28T07:57:05.549Z,29.57
2022-08-28T07:58:08.313Z,29.76
2022-08-28T07:59:11.947Z,29.91
2022-08-28T08:00:15.981Z,30.08
2022-08-28T08:01:18.093Z,30.22
2022-08-28T08:02:20.581Z,30.32
2022-08-28T08:03:22.903Z,30.42
2022-08-28T08:04:25.496Z,30.41
2022-08-28T08:05:27.147Z,30.40
2022-08-28T08:06:33.837Z,30.40
2022-08-28T08:07:39.912Z,30.33
2022-08-28T08:08:45.995Z,30.23
2022-08-28T08:09:47.715Z,30.22
2022-08-28T08:11:16.657Z,30.25
2022-08-28T08:12:18.966Z,30.27
2022-08-28T08:13:20.657Z,30.21
2022-08-28T08:14:22.822Z,30.22
2022-08-28T08:15:27.307Z,30.28
2022-08-28T08:16:36.420Z,30.17
2022-08-28T08:17:38.637Z,30.35
2022-08-28T08:18:41.900Z,30.54
2022-08-28T08:19:43.521Z,30.66
2022-08-28T08:20:45.127Z,30.64
2022-08-28T08:21:53.214Z,30.71
2022-08-28T08:22:56.567Z,30.77
2022-08-28T08:23:58.849Z,30.81
2022-08-28T08:25:00.773Z,30.83
2022-08-28T08:26:06.943Z,30.84
2022-08-28T08:27:11.018Z,30.95
2022-08-28T08:28:12.797Z,31.06
2022-08-28T08:29:15.111Z,31.11
2022-08-28T08:30:16.874Z,31.01
2022-08-28T08:31:18.504Z,30.76
2022-08-28T08:32:20.161Z,30.68
2022-08-28T08:33:22.244Z,30.68
2022-08-28T08:34:24.653Z,30.81
2022-08-28T08:35:26.402Z,30.91
2022-08-28T08:36:29.280Z,30.96
2022-08-28T08:37:31.014Z,31.11
2022-08-28T08:38:35.338Z,31.16
2022-08-28T08:39:37.914Z,31.15
2022-08-28T08:40:39.870Z,31.23
2022-08-28T08:41:48.004Z,31.32
2022-08-28T08:42:55.644Z,31.34
2022-08-28T08:44:00.357Z,31.38
2022-08-28T08:45:04.711Z,31.25
2022-08-28T08:46:09.591Z,31.06
2022-08-28T08:47:15.122Z,30.86
2022-08-28T08:48:35.825Z,30.95
2022-08-28T08:49:41.783Z,30.74
2022-08-28T08:50:43.418Z,30.32
2022-08-28T08:52:05.183Z,29.95
2022-08-28T08:53:20.124Z,29.97
2022-08-28T08:54:22.069Z,29.95
2022-08-28T08:55:27.105Z,29.96
2022-08-28T08:56:34.915Z,30.11
2022-08-28T08:57:39.102Z,30.15
2022-08-28T08:58:44.338Z,29.99
2022-08-28T08:59:46.437Z,29.91
2022-08-28T09:00:57.303Z,29.74
2022-08-28T09:02:14.011Z,29.70
2022-08-28T09:03:54.154Z,29.79
2022-08-28T09:05:03.866Z,29.85
2022-08-28T09:06:12.561Z,29.99
2022-08-28T09:07:20.349Z,30.09
2022-08-28T09:08:30.151Z,30.19
2022-08-28T09:09:31.663Z,30.35
2022-08-28T09:10:41.476Z,30.36
2022-08-28T09:11:57.258Z,30.25
2022-08-28T09:13:23.676Z,30.13
2022-08-28T09:14:57.565Z,30.21
2022-08-28T09:16:01.625Z,30.42
2022-08-28T09:17:05.651Z,30.56
2022-08-28T09:18:27.199Z,30.64
2022-08-28T09:19:29.332Z,30.68
2022-08-28T09:20:33.113Z,30.68
2022-08-28T09:21:40.105Z,30.63
2022-08-28T09:22:45.065Z,30.66
2022-08-28T09:23:46.900Z,30.79
2022-08-28T09:24:48.843Z,30.83
2022-08-28T09:25:54.900Z,30.82
2022-08-28T09:27:25.039Z,30.80
2022-08-28T09:28:44.703Z,30.89
2022-08-28T09:29:55.561Z,30.92
2022-08-28T09:31:02.295Z,30.69
2022-08-28T09:32:25.840Z,30.70
2022-08-28T09:33:49.316Z,30.71
2022-08-28T09:35:34.160Z,30.53
2022-08-28T09:36:38.269Z,30.24
2022-08-28T09:37:41.964Z,30.24
2022-08-28T09:38:43.652Z,30.33
2022-08-28T09:39:48.759Z,30.44
2022-08-28T09:41:25.135Z,30.59
2022-08-28T09:42:45.346Z,30.77
2022-08-28T09:43:46.964Z,30.85
2022-08-28T09:45:13.527Z,30.90
2022-08-28T09:46:32.576Z,30.98
2022-08-28T09:47:34.129Z,31.03
2022-08-28T09:48:40.786Z,31.16
2022-08-28T09:49:42.342Z,31.21
2022-08-28T09:50:58.181Z,31.29
2022-08-28T09:52:23.064Z,31.19
2022-08-28T09:53:28.498Z,31.14
2022-08-28T09:54:32.941Z,31.17
2022-08-28T09:55:46.796Z,31.19
2022-08-28T09:56:50.561Z,31.13
2022-08-28T09:57:52.802Z,31.08
2022-08-28T09:59:02.242Z,31.14
2022-08-28T10:00:04.972Z,31.29
2022-08-28T10:01:30.083Z,31.48
2022-08-28T10:03:10.092Z,31.59
2022-08-28T10:04:18.048Z,31.56
2022-08-28T10:05:34.887Z,31.57
2022-08-28T10:06:37.484Z,31.60
2022-08-28T10:07:46.422Z,31.42
2022-08-28T10:09:26.807Z,31.24
2022-08-28T10:10:54.601Z,31.07
2022-08-28T10:12:01.627Z,31.05
2022-08-28T10:13:14.826Z,31.22
2022-08-28T10:14:28.351Z,31.26
2022-08-28T10:15:42.966Z,31.27
2022-08-28T10:17:26.170Z,31.45
2022-08-28T10:18:48.614Z,31.55
2022-08-28T10:20:03.700Z,31.54
2022-08-28T10:21:14.043Z,31.62
2022-08-28T10:22:28.832Z,31.63
2022-08-28T10:23:36.717Z,31.59
2022-08-28T10:24:59.441Z,31.69
2022-08-28T10:26:29.867Z,31.73
2022-08-28T10:27:40.461Z,31.67
2022-08-28T10:28:57.338Z,31.70
2022-08-28T10:30:09.990Z,31.75
2022-08-28T10:31:42.606Z,31.88
2022-08-28T10:33:07.011Z,31.92
2022-08-28T10:34:46.894Z,32.02
2022-08-28T10:36:06.749Z,32.23
2022-08-28T10:37:17.947Z,32.29
2022-08-28T10:38:36.500Z,32.32
2022-08-28T10:40:04.884Z,32.36
2022-08-28T10:41:18.193Z,32.35
2022-08-28T10:42:36.338Z,32.43
2022-08-28T10:43:49.777Z,32.45
2022-08-28T10:45:05.312Z,32.49
2022-08-28T10:46:27.078Z,32.57
2022-08-28T10:47:29.684Z,32.62
2022-08-28T10:48:34.408Z,32.64
2022-08-28T10:49:37.052Z,32.66
2022-08-28T10:50:47.193Z,32.58
2022-08-28T10:52:27.521Z,32.35
2022-08-28T10:53:40.601Z,32.32
2022-08-28T10:54:54.155Z,32.38
2022-08-28T10:56:00.047Z,32.48
2022-08-28T10:57:38.863Z,32.51
2022-08-28T10:58:42.155Z,32.47
2022-08-28T10:59:49.017Z,32.50
2022-08-28T11:00:52.824Z,32.45
2022-08-28T11:01:54.522Z,32.41
2022-08-28T11:03:01.309Z,32.53
2022-08-28T11:04:10.409Z,32.46
2022-08-28T11:05:12.781Z,32.33
2022-08-28T11:06:23.264Z,32.20
2022-08-28T11:07:41.803Z,32.13
2022-08-28T11:08:52.949Z,32.14
2022-08-28T11:09:54.639Z,32.05
2022-08-28T11:10:58.551Z,31.98
2022-08-28T11:12:10.142Z,32.03
2022-08-28T11:13:12.781Z,32.22
2022-08-28T11:14:31.130Z,32.36
2022-08-28T11:15:37.171Z,32.43
2022-08-28T11:16:46.583Z,32.48
2022-08-28T11:17:48.330Z,32.47
2022-08-28T11:19:22.188Z,32.50
2022-08-28T11:20:28.420Z,32.43
2022-08-28T11:21:51.809Z,32.46
2022-08-28T11:23:08.994Z,32.46
2022-08-28T11:24:28.415Z,32.45
2022-08-28T11:25:54.816Z,32.34
2022-08-28T11:27:21.596Z,32.30
2022-08-28T11:28:27.095Z,32.37
2022-08-28T11:30:01.912Z,32.49
2022-08-28T11:31:06.588Z,32.70
2022-08-28T11:32:39.053Z,32.81
2022-08-28T11:33:53.098Z,32.87
2022-08-28T11:35:17.533Z,33.01
2022-08-28T11:36:21.620Z,33.11
2022-08-28T11:37:44.920Z,33.11
2022-08-28T11:38:46.891Z,33.07
2022-08-28T11:39:48.522Z,33.10
2022-08-28T11:40:55.177Z,33.08
2022-08-28T11:42:13.349Z,33.07
2022-08-28T11:43:16.130Z,33.02
2022-08-28T11:44:26.527Z,33.12
2022-08-28T11:45:46.615Z,33.14
2022-08-28T11:46:50.860Z,33.17
2022-08-28T11:47:56.400Z,33.17
2022-08-28T11:49:01.563Z,33.14
2022-08-28T11:50:13.312Z,33.13
2022-08-28T11:51:17.756Z,33.16
2022-08-28T11:52:44.098Z,33.10
2022-08-28T11:54:23.385Z,32.99
2022-08-28T11:55:54.441Z,33.05
2022-08-28T11:57:18.084Z,33.14
2022-08-28T11:58:47.185Z,33.15
2022-08-28T12:00:10.657Z,33.14
2022-08-28T12:01:24.896Z,33.09
2022-08-28T12:02:43.084Z,33.02
2022-08-28T12:03:55.429Z,33.06
2022-08-28T12:04:57.287Z,32.89
2022-08-28T12:06:00.562Z,32.81
2022-08-28T12:07:15.932Z,32.76
2022-08-28T12:08:45.016Z,32.74
2022-08-28T12:09:48.468Z,32.63
2022-08-28T12:10:56.061Z,32.43
2022-08-28T12:12:09.319Z,32.35
2022-08-28T12:13:50.984Z,32.28
2022-08-28T12:14:55.106Z,32.15
2022-08-28T12:16:06.633Z,32.19
2022-08-28T12:17:25.203Z,32.16
2022-08-28T12:18:57.937Z,32.31
2022-08-28T12:20:10.407Z,32.33
2022-08-28T12:21:25.517Z,32.45
2022-08-28T12:22:52.905Z,32.51
2022-08-28T12:24:09.053Z,32.64
2022-08-28T12:25:39.679Z,32.71
2022-08-28T12:26:49.367Z,32.74
2022-08-28T12:27:52.705Z,32.70
2022-08-28T12:28:57.895Z,32.74
2022-08-28T12:30:02.119Z,32.84
2022-08-28T12:31:06.454Z,32.96
2022-08-28T12:32:37.462Z,33.05
2022-08-28T12:34:03.930Z,33.08
2022-08-28T12:35:29.576Z,33.21
2022-08-28T12:36:31.664Z,33.22
2022-08-28T12:37:53.254Z,33.20
2022-08-28T12:38:58.416Z,33.21
2022-08-28T12:40:05.300Z,33.20
2022-08-28T12:41:16.988Z,33.21
2022-08-28T12:42:22.465Z,33.17
2022-08-28T12:43:41.729Z,33.11
2022-08-28T12:44:49.052Z,32.96
2022-08-28T12:46:19.304Z,32.94
2022-08-28T12:47:23.705Z,32.92
2022-08-28T12:48:31.670Z,32.92
2022-08-28T12:49:37.028Z,32.87
2022-08-28T12:50:39.916Z,32.92
2022-08-28T12:51:41.535Z,32.95
2022-08-28T12:52:52.107Z,33.03
2022-08-28T12:53:57.204Z,33.13
2022-08-28T12:54:58.955Z,33.11
2022-08-28T12:56:00.559Z,33.04
2022-08-28T12:57:08.331Z,32.96
2022-08-28T12:58:30.705Z,33.10
2022-08-28T12:59:44.043Z,33.09
2022-08-28T13:00:54.939Z,33.02
2022-08-28T13:02:06.473Z,33.06
2022-08-28T13:03:08.218Z,33.08
2022-08-28T13:04:57.582Z,33.08
2022-08-28T13:06:09.013Z,33.00
2022-08-28T13:07:23.197Z,33.08
2022-08-28T13:08:24.867Z,33.12
2022-08-28T13:09:28.111Z,33.15
2022-08-28T13:10:39.254Z,33.26
2022-08-28T13:11:47.277Z,33.37
2022-08-28T13:13:18.373Z,33.39
2022-08-28T13:14:43.645Z,33.45
2022-08-28T13:15:50.709Z,33.54
2022-08-28T13:16:52.364Z,33.57
2022-08-28T13:17:54.905Z,33.55
2022-08-28T13:19:05.589Z,33.53
2022-08-28T13:20:08.495Z,33.54
2022-08-28T13:21:33.252Z,33.61
2022-08-28T13:22:41.312Z,33.58
2022-08-28T13:23:55.173Z,33.62
2022-08-28T13:25:01.346Z,33.52
2022-08-28T13:26:05.503Z,33.34
2022-08-28T13:27:07.085Z,33.31
2022-08-28T13:28:15.135Z,33.32
2022-08-28T13:29:22.649Z,33.32
2022-08-28T13:30:29.087Z,33.40
2022-08-28T13:31:40.853Z,33.45
2022-08-28T13:32:55.889Z,33.44
2022-08-28T13:34:07.225Z,33.41
2022-08-28T13:35:17.500Z,33.40
2022-08-28T13:36:24.075Z,33.31
2022-08-28T13:37:52.367Z,33.09
2022-08-28T13:38:53.985Z,32.95
2022-08-28T13:39:55.716Z,32.91
2022-08-28T13:41:02.427Z,32.84
2022-08-28T13:42:10.841Z,32.81
2022-08-28T13:43:13.310Z,32.83
2022-08-28T13:44:53.169Z,32.80
2022-08-28T13:45:55.223Z,32.95
2022-08-28T13:46:58.021Z,32.95
2022-08-28T13:47:59.680Z,32.92
2022-08-28T13:49:01.505Z,32.99
2022-08-28T13:50:04.104Z,33.16
2022-08-28T13:51:10.532Z,33.23
2022-08-28T13:52:13.166Z,33.29
2022-08-28T13:53:16.686Z,33.32
2022-08-28T13:54:18.340Z,33.35
2022-08-28T13:55:21.772Z,33.28
2022-08-28T13:56:25.487Z,33.23
2022-08-28T13:57:27.927Z,33.21
2022-08-28T13:58:29.609Z,33.17
2022-08-28T13:59:31.563Z,33.16
2022-08-28T14:00:37.979Z,33.06
2022-08-28T14:01:58.256Z,33.02
2022-08-28T14:03:18.503Z,33.07
2022-08-28T14:04:20.086Z,33.03
2022-08-28T14:05:21.669Z,32.97
2022-08-28T14:06:23.664Z,32.95
2022-08-28T14:07:33.393Z,32.92
2022-08-28T14:08:35.073Z,32.90
2022-08-28T14:09:36.870Z,32.86
2022-08-28T14:10:40.066Z,32.82
2022-08-28T14:11:42.695Z,32.76
2022-08-28T14:12:46.745Z,32.73
2022-08-28T14:13:55.349Z,32.66
2022-08-28T14:14:57.725Z,32.66
2022-08-28T14:15:59.385Z,32.62
2022-08-28T14:17:01.836Z,32.64
2022-08-28T14:18:03.435Z,32.56